West Melbourne, Florida
Current Conditions -  °F | °C
As of 10:53 PM on Monday 22 Dec 2014 (Local Time) from KMLB Reporting Station
Few Clouds Few Clouds  
Wind Chill: 72°   Ceiling: Unl
Heat Index: 72°   Visibility: 10mi
Dew Point: 67°   Wind: 7mph
Humidity: 84%   Direction: 180°S
Pressure: 29.97"   Gusts: NA
Location:  28.0786°N, 80.6027°W
Report Text: KMLB 230353Z 18006KT 10SM FEW038 FEW095 22/19 A2997 RMK AO2 SLP148 T02220194
Loading
Personal Weather Stations






























Interactive Weather Map New forecast layout! Learn more

10-Day Weather Forecast

Advertisements
Track Severe Weather on mobile